Time;durP1;ratioP1;P1;durP2;ratioP2;P2;SDS_P1;SDS_P2;PMS_P1;PMS_P2;Temp;Humidity;BMP_temperature;BMP_pressure;BME280_temperature;BME280_humidity;BME280_pressure;Samples;Min_cycle;Max_cycle;Signal;HPM_P1;HPM_P2
2021/08/28 00:00:53;;;;;;;0.70;0.50;;;15.30;99.90;;;;;;5016931;28;20685;-75
2021/08/28 00:03:19;;;;;;;0.70;0.50;;;15.30;99.90;;;;;;5012035;28;20168;-74
2021/08/28 00:05:45;;;;;;;0.70;0.50;;;15.30;99.90;;;;;;5010451;28;20419;-74
2021/08/28 00:08:11;;;;;;;0.70;0.50;;;15.30;99.90;;;;;;5010559;28;20459;-74
2021/08/28 00:10:37;;;;;;;0.70;0.53;;;15.30;99.90;;;;;;5012135;28;20454;-75
2021/08/28 00:13:03;;;;;;;1.03;0.93;;;15.30;99.90;;;;;;5010745;28;20173;-75
2021/08/28 00:15:29;;;;;;;0.83;0.83;;;15.30;99.90;;;;;;5011693;28;20171;-75
2021/08/28 00:17:55;;;;;;;0.90;0.60;;;15.30;99.90;;;;;;5011818;28;20435;-74
2021/08/28 00:20:21;;;;;;;0.70;0.50;;;15.30;99.90;;;;;;5011623;28;20199;-74
2021/08/28 00:22:46;;;;;;;1.20;0.93;;;15.30;99.90;;;;;;5011982;28;20485;-75
2021/08/28 00:25:12;;;;;;;0.70;0.50;;;15.30;99.90;;;;;;5010593;28;20913;-75
2021/08/28 00:27:38;;;;;;;0.70;0.50;;;15.30;99.90;;;;;;5011620;28;20184;-75
2021/08/28 00:30:04;;;;;;;0.70;0.50;;;15.40;99.90;;;;;;5010485;28;20180;-75
2021/08/28 00:32:30;;;;;;;0.70;0.50;;;15.40;99.90;;;;;;5010566;28;20419;-75
2021/08/28 00:34:55;;;;;;;1.33;1.23;;;15.40;99.90;;;;;;5011399;28;20422;-76
2021/08/28 00:37:21;;;;;;;0.70;0.57;;;15.40;99.90;;;;;;5010658;28;20196;-75
2021/08/28 00:39:47;;;;;;;0.70;0.50;;;15.40;99.90;;;;;;5011706;28;20804;-76
2021/08/28 00:42:12;;;;;;;4.70;1.60;;;15.50;99.90;;;;;;5014537;28;20279;-76
2021/08/28 00:44:41;;;;;;;0.80;0.60;;;15.50;99.90;;;;;;5015254;28;20164;-76
2021/08/28 00:47:06;;;;;;;0.70;0.60;;;15.50;99.90;;;;;;5014895;28;20242;-76
2021/08/28 00:49:32;;;;;;;1.03;0.93;;;15.50;99.90;;;;;;5015149;28;20875;-76
2021/08/28 00:52:02;;;;;;;0.70;0.50;;;15.50;99.90;;;;;;5015118;28;20214;-76
2021/08/28 00:54:27;;;;;;;1.37;1.27;;;15.50;99.90;;;;;;5014722;28;20187;-76
2021/08/28 00:56:53;;;;;;;0.80;0.80;;;15.50;99.90;;;;;;5014768;28;20508;-76
2021/08/28 00:59:18;;;;;;;0.90;0.60;;;15.50;99.90;;;;;;5014797;28;20366;-75
2021/08/28 01:01:45;;;;;;;1.30;1.17;;;15.50;99.90;;;;;;5014946;28;20168;-76
2021/08/28 01:04:18;;;;;;;0.70;0.50;;;15.50;99.90;;;;;;5014876;28;20188;-76
2021/08/28 01:07:07;;;;;;;0.87;0.87;;;15.50;99.90;;;;;;5014680;28;20407;-76
2021/08/28 01:09:35;;;;;;;0.90;0.57;;;15.50;99.90;;;;;;5014826;28;20441;-75
2021/08/28 01:12:15;;;;;;;0.70;0.50;;;15.50;99.90;;;;;;5013587;28;20503;-76
2021/08/28 01:14:44;;;;;;;0.80;0.60;;;15.50;99.90;;;;;;5014617;28;20449;-76
2021/08/28 01:17:13;;;;;;;1.23;1.00;;;15.50;99.90;;;;;;5014516;28;20411;-76
2021/08/28 01:19:51;;;;;;;0.70;0.50;;;15.50;99.90;;;;;;5013083;28;20465;-76
2021/08/28 01:22:18;;;;;;;1.53;1.03;;;15.60;99.90;;;;;;5014537;28;20775;-76
2021/08/28 01:24:47;;;;;;;0.70;0.60;;;15.60;99.90;;;;;;5014532;28;20414;-75
2021/08/28 01:27:27;;;;;;;2.53;0.90;;;15.60;99.90;;;;;;5013215;28;20411;-76
2021/08/28 01:29:53;;;;;;;0.80;0.77;;;15.60;99.90;;;;;;5014424;28;20408;-76
2021/08/28 01:32:21;;;;;;;0.83;0.83;;;15.70;99.90;;;;;;5014332;28;20501;-76
2021/08/28 01:34:47;;;;;;;0.87;0.77;;;15.70;99.90;;;;;;5014149;28;20411;-76
2021/08/28 01:37:14;;;;;;;0.70;0.70;;;15.70;99.90;;;;;;5014164;28;20419;-75
2021/08/28 01:39:42;;;;;;;1.60;1.27;;;15.70;99.90;;;;;;5013125;28;20455;-75
2021/08/28 01:42:09;;;;;;;1.57;0.70;;;15.70;99.90;;;;;;5012973;28;20414;-75
2021/08/28 01:44:36;;;;;;;2.67;1.23;;;15.70;99.90;;;;;;5014118;28;20419;-75
2021/08/28 01:47:02;;;;;;;1.10;1.00;;;15.80;99.90;;;;;;5012685;28;20411;-75
2021/08/28 01:49:28;;;;;;;1.30;1.03;;;15.80;99.90;;;;;;5012664;28;20553;-75
2021/08/28 01:51:54;;;;;;;0.70;0.50;;;15.80;99.90;;;;;;5013588;28;20417;-75
2021/08/28 01:54:20;;;;;;;1.43;1.13;;;15.80;99.90;;;;;;5013475;28;20408;-75
2021/08/28 01:56:46;;;;;;;1.97;1.10;;;15.80;99.90;;;;;;5012379;28;20192;-76
2021/08/28 01:59:13;;;;;;;1.30;1.20;;;15.80;99.90;;;;;;5013792;28;20590;-76
2021/08/28 02:01:39;;;;;;;0.80;0.80;;;15.70;99.90;;;;;;5013941;28;20230;-76
2021/08/28 02:04:04;;;;;;;0.90;0.60;;;15.70;99.90;;;;;;5012552;28;20419;-76
2021/08/28 02:06:36;;;;;;;1.00;0.90;;;15.70;99.90;;;;;;5013683;28;20307;-76
2021/08/28 02:09:13;;;;;;;0.93;0.80;;;15.70;99.90;;;;;;5013612;28;20234;-76
2021/08/28 02:11:50;;;;;;;0.80;0.80;;;15.70;99.90;;;;;;5012489;28;20824;-76
2021/08/28 02:14:21;;;;;;;0.97;0.97;;;15.70;99.90;;;;;;5013594;28;20435;-76
2021/08/28 02:16:47;;;;;;;1.50;1.37;;;15.70;99.90;;;;;;5012366;28;20410;-76
2021/08/28 02:19:31;;;;;;;3.20;2.93;;;15.70;99.90;;;;;;5013417;28;20956;-76
2021/08/28 02:21:59;;;;;;;2.10;0.97;;;15.70;99.90;;;;;;5012208;28;20222;-76
2021/08/28 02:24:34;;;;;;;0.80;0.67;;;15.70;99.90;;;;;;5013420;28;20811;-76
2021/08/28 02:27:06;;;;;;;5.33;1.33;;;15.70;99.90;;;;;;5013112;28;20415;-76
2021/08/28 02:29:35;;;;;;;1.70;1.60;;;15.70;99.90;;;;;;5013270;28;20480;-76
2021/08/28 02:32:01;;;;;;;3.97;1.73;;;15.80;99.90;;;;;;5012024;28;20423;-76
2021/08/28 02:34:31;;;;;;;10.03;1.00;;;15.70;99.90;;;;;;5013186;28;20469;-76
2021/08/28 02:36:58;;;;;;;1.63;1.20;;;15.70;99.90;;;;;;5011704;28;20790;-76
2021/08/28 02:39:24;;;;;;;1.37;1.27;;;15.80;99.90;;;;;;5011648;28;20458;-76
2021/08/28 02:41:50;;;;;;;1.23;1.00;;;15.80;99.90;;;;;;5013147;28;20482;-76
2021/08/28 02:44:16;;;;;;;3.93;2.60;;;15.80;99.90;;;;;;5013105;28;20435;-76
2021/08/28 02:46:42;;;;;;;1.10;1.00;;;15.80;99.90;;;;;;5012818;28;20256;-76
2021/08/28 02:49:10;;;;;;;1.37;1.27;;;15.70;99.90;;;;;;5012980;28;20666;-76
2021/08/28 02:51:35;;;;;;;1.20;0.80;;;15.70;99.90;;;;;;5012848;28;20407;-76
2021/08/28 02:54:02;;;;;;;3.83;1.23;;;15.80;99.90;;;;;;5011648;28;20913;-76
2021/08/28 02:56:31;;;;;;;1.57;1.47;;;15.80;99.90;;;;;;5012439;28;20195;-76
2021/08/28 02:58:56;;;;;;;0.90;0.77;;;15.80;99.90;;;;;;5011422;28;20435;-76
2021/08/28 03:01:25;;;;;;;1.07;0.97;;;15.80;99.90;;;;;;5011536;28;20410;-76
2021/08/28 03:03:52;;;;;;;1.90;1.63;;;15.80;99.90;;;;;;5011310;28;20176;-76
2021/08/28 03:06:18;;;;;;;1.67;1.27;;;15.70;99.90;;;;;;5011141;28;20422;-76
2021/08/28 03:08:45;;;;;;;2.40;0.97;;;15.80;99.90;;;;;;5015270;28;20478;-76
2021/08/28 03:11:12;;;;;;;1.10;0.70;;;15.80;99.90;;;;;;5032341;28;20415;-76
2021/08/28 03:13:38;;;;;;;1.27;1.17;;;15.80;99.90;;;;;;5032303;28;20493;-76
2021/08/28 03:16:04;;;;;;;1.93;1.40;;;15.80;99.90;;;;;;5032006;28;20417;-76
2021/08/28 03:18:40;;;;;;;5.90;5.20;;;15.90;99.90;;;;;;5027882;28;20811;-76
2021/08/28 03:21:06;;;;;;;2.20;1.90;;;15.80;99.90;;;;;;5012392;28;20334;-76
2021/08/28 03:23:34;;;;;;;4.83;4.27;;;15.90;99.90;;;;;;5012345;28;20402;-76
2021/08/28 03:26:00;;;;;;;2.40;1.47;;;15.90;99.90;;;;;;5012133;28;20403;-76
2021/08/28 03:28:27;;;;;;;1.63;1.20;;;15.90;99.90;;;;;;5012263;28;20433;-75
2021/08/28 03:30:54;;;;;;;1.67;1.57;;;15.90;99.90;;;;;;5011140;28;20183;-75
2021/08/28 03:33:20;;;;;;;3.10;2.30;;;15.90;99.90;;;;;;5012275;28;20415;-75
2021/08/28 03:35:49;;;;;;;0.83;0.83;;;15.90;99.90;;;;;;5011988;28;20481;-76
2021/08/28 03:38:15;;;;;;;1.67;1.57;;;15.90;99.90;;;;;;5012204;28;20489;-75
2021/08/28 03:40:41;;;;;;;1.90;1.80;;;15.90;99.90;;;;;;5012202;28;20862;-75
2021/08/28 03:43:09;;;;;;;3.57;1.67;;;15.80;99.90;;;;;;5012288;28;20434;-75
2021/08/28 03:45:34;;;;;;;1.70;1.33;;;15.80;99.90;;;;;;5011892;28;20207;-75
2021/08/28 03:48:00;;;;;;;1.13;1.07;;;15.90;99.90;;;;;;5012135;28;20462;-75
2021/08/28 03:50:26;;;;;;;1.30;0.90;;;15.90;99.90;;;;;;5012145;28;20185;-76
2021/08/28 03:52:52;;;;;;;1.63;0.80;;;15.90;99.90;;;;;;5012195;28;20420;-74
2021/08/28 03:55:17;;;;;;;1.87;1.77;;;15.90;99.90;;;;;;5011674;28;20194;-75
2021/08/28 03:57:43;;;;;;;2.63;1.60;;;15.90;99.90;;;;;;5010842;28;20652;-75
2021/08/28 04:00:09;;;;;;;1.50;1.40;;;15.90;99.90;;;;;;5012018;28;20196;-75
2021/08/28 04:02:34;;;;;;;1.70;1.17;;;15.90;99.90;;;;;;5012097;28;20168;-75
2021/08/28 04:05:00;;;;;;;3.40;2.40;;;15.90;99.90;;;;;;5011695;28;20830;-76
2021/08/28 04:07:26;;;;;;;5.07;1.03;;;15.90;99.90;;;;;;5011976;28;20175;-76
2021/08/28 04:09:51;;;;;;;1.97;1.03;;;15.90;99.90;;;;;;5011940;28;20169;-75
2021/08/28 04:12:17;;;;;;;4.10;2.23;;;15.90;99.90;;;;;;5010691;28;20172;-76
2021/08/28 04:14:42;;;;;;;2.17;1.70;;;16.00;99.90;;;;;;5011981;28;20184;-75
2021/08/28 04:17:08;;;;;;;10.20;2.67;;;16.00;99.90;;;;;;5014823;28;20164;-75
2021/08/28 04:19:34;;;;;;;1.53;1.43;;;16.00;99.90;;;;;;5015576;28;20282;-76
2021/08/28 04:21:59;;;;;;;1.70;1.60;;;16.00;99.90;;;;;;5015712;28;20618;-76
2021/08/28 04:24:25;;;;;;;1.70;1.43;;;16.00;99.90;;;;;;5015646;28;20214;-75
2021/08/28 04:26:50;;;;;;;1.70;1.60;;;16.00;99.90;;;;;;5015359;28;20172;-76
2021/08/28 04:29:16;;;;;;;2.30;2.00;;;16.00;99.90;;;;;;5014347;28;20199;-76
2021/08/28 04:31:42;;;;;;;2.40;1.83;;;16.00;99.90;;;;;;5015523;28;20510;-76
2021/08/28 04:34:07;;;;;;;2.50;2.30;;;16.10;99.90;;;;;;5015531;28;20536;-76
2021/08/28 04:36:33;;;;;;;3.03;2.80;;;16.10;99.90;;;;;;5015226;28;20230;-76
2021/08/28 04:39:00;;;;;;;1.00;1.00;;;16.00;99.90;;;;;;5015241;28;20188;-76
2021/08/28 04:41:26;;;;;;;1.53;1.43;;;16.10;99.90;;;;;;5014130;28;20200;-76
2021/08/28 04:43:51;;;;;;;1.77;1.67;;;16.10;99.90;;;;;;5015282;28;20434;-74
2021/08/28 04:46:18;;;;;;;1.67;1.10;;;16.10;99.90;;;;;;5013914;28;20808;-74
2021/08/28 04:48:43;;;;;;;2.77;1.03;;;16.00;99.90;;;;;;5015163;28;20609;-74
2021/08/28 04:51:09;;;;;;;2.07;1.10;;;16.10;99.90;;;;;;5015248;28;20411;-74
2021/08/28 04:53:34;;;;;;;3.07;2.63;;;16.00;99.90;;;;;;5013855;28;20176;-74
2021/08/28 04:56:00;;;;;;;2.10;2.00;;;16.10;99.90;;;;;;5013479;28;20249;-74
2021/08/28 04:58:25;;;;;;;1.40;1.30;;;16.10;99.90;;;;;;5015044;28;20223;-73
2021/08/28 05:00:51;;;;;;;1.47;1.37;;;16.10;99.90;;;;;;5015011;28;20199;-76
2021/08/28 05:03:18;;;;;;;2.07;1.87;;;16.10;99.90;;;;;;5015287;28;20243;-76
2021/08/28 05:05:43;;;;;;;1.97;1.87;;;16.10;99.90;;;;;;5014674;28;20169;-76
2021/08/28 05:08:09;;;;;;;1.00;0.90;;;16.10;99.90;;;;;;5014811;28;20946;-76
2021/08/28 05:10:35;;;;;;;1.00;0.83;;;16.20;99.90;;;;;;5014765;28;20172;-74
2021/08/28 05:13:00;;;;;;;1.20;1.10;;;16.20;99.90;;;;;;5014890;28;20207;-74
2021/08/28 05:15:26;;;;;;;2.17;1.63;;;16.20;99.90;;;;;;5014495;28;20656;-74
2021/08/28 05:17:51;;;;;;;2.03;1.73;;;16.20;99.90;;;;;;5014622;28;20194;-74
2021/08/28 05:20:17;;;;;;;1.10;1.00;;;16.20;99.90;;;;;;5014675;28;20200;-74
2021/08/28 05:22:43;;;;;;;5.00;3.50;;;16.20;99.90;;;;;;5013318;28;20629;-74
2021/08/28 05:25:08;;;;;;;5.33;2.57;;;16.20;99.90;;;;;;5014419;28;20622;-74
2021/08/28 05:27:34;;;;;;;1.10;1.00;;;16.10;99.90;;;;;;5014347;28;20666;-74
2021/08/28 05:29:59;;;;;;;3.13;1.27;;;16.20;99.90;;;;;;5013316;28;20245;-74
2021/08/28 05:32:25;;;;;;;2.77;2.50;;;16.20;99.90;;;;;;5013142;28;20246;-74
2021/08/28 05:34:53;;;;;;;3.67;1.47;;;16.20;99.90;;;;;;5012957;28;20518;-74
2021/08/28 05:37:18;;;;;;;1.60;1.50;;;16.20;99.90;;;;;;5014208;28;20230;-74
2021/08/28 05:39:44;;;;;;;1.17;1.10;;;16.20;99.90;;;;;;5014216;28;20947;-74
2021/08/28 05:42:09;;;;;;;0.80;0.70;;;16.20;99.90;;;;;;5014255;28;20194;-74
2021/08/28 05:44:35;;;;;;;2.23;2.03;;;16.20;99.90;;;;;;5013137;28;20251;-74
2021/08/28 05:47:00;;;;;;;2.03;1.93;;;16.30;99.90;;;;;;5012607;28;20175;-74
2021/08/28 05:49:26;;;;;;;3.77;1.70;;;16.30;99.90;;;;;;5014107;28;20246;-74
2021/08/28 05:51:51;;;;;;;2.80;2.50;;;16.30;99.90;;;;;;5014068;28;20235;-74
2021/08/28 05:54:17;;;;;;;1.00;0.90;;;16.30;99.90;;;;;;5014047;28;20581;-74
2021/08/28 05:56:42;;;;;;;3.07;2.97;;;16.30;99.90;;;;;;5013632;28;20196;-74
2021/08/28 05:59:08;;;;;;;1.67;1.50;;;16.30;99.90;;;;;;5012585;28;20258;-74
2021/08/28 06:01:34;;;;;;;1.57;1.47;;;16.30;99.90;;;;;;5013904;28;20172;-75
2021/08/28 06:03:59;;;;;;;2.10;2.00;;;16.30;99.90;;;;;;5014274;28;20174;-77
2021/08/28 06:06:25;;;;;;;1.30;1.20;;;16.30;99.90;;;;;;5014039;28;20179;-77
2021/08/28 06:08:50;;;;;;;1.27;1.17;;;16.30;99.90;;;;;;5014011;28;20200;-77
2021/08/28 06:11:16;;;;;;;0.80;0.60;;;16.30;99.90;;;;;;5014290;28;20645;-76
2021/08/28 06:13:41;;;;;;;2.40;2.30;;;16.30;99.90;;;;;;5013599;28;20267;-76
2021/08/28 06:16:07;;;;;;;1.43;1.33;;;16.30;99.90;;;;;;5012658;28;20176;-77
2021/08/28 06:18:32;;;;;;;0.70;0.60;;;16.20;99.90;;;;;;5013844;28;20200;-76
2021/08/28 06:20:58;;;;;;;0.70;0.63;;;16.10;99.90;;;;;;5029721;28;20199;-76
2021/08/28 06:23:24;;;;;;;2.80;0.93;;;16.10;99.90;;;;;;5033781;28;20194;-77
2021/08/28 06:25:50;;;;;;;1.33;1.20;;;16.10;99.90;;;;;;5034976;28;20198;-76
2021/08/28 06:28:16;;;;;;;2.10;1.10;;;16.10;99.90;;;;;;5035436;28;20509;-77
2021/08/28 06:30:42;;;;;;;1.47;1.37;;;16.00;99.90;;;;;;5033728;28;20190;-76
2021/08/28 06:33:08;;;;;;;0.80;0.73;;;16.10;99.90;;;;;;5033052;28;20176;-76
2021/08/28 06:35:34;;;;;;;0.83;0.83;;;16.10;99.90;;;;;;5032654;28;20963;-75
2021/08/28 06:38:00;;;;;;;1.13;1.13;;;16.00;99.90;;;;;;5032963;28;20508;-76
2021/08/28 06:40:25;;;;;;;2.03;0.90;;;16.00;99.90;;;;;;5032507;28;20253;-76
2021/08/28 06:42:51;;;;;;;1.63;0.77;;;16.10;99.90;;;;;;5032818;28;20411;-76
2021/08/28 06:45:17;;;;;;;5.07;0.90;;;16.10;99.90;;;;;;5032496;28;20540;-76
2021/08/28 06:47:42;;;;;;;3.30;0.87;;;16.10;99.90;;;;;;5032671;28;20278;-76
2021/08/28 06:50:08;;;;;;;1.87;1.77;;;16.10;99.90;;;;;;5032877;28;20572;-76
2021/08/28 06:52:34;;;;;;;2.17;2.07;;;16.10;99.90;;;;;;5032650;28;20725;-76
2021/08/28 06:54:59;;;;;;;1.50;1.40;;;16.20;99.90;;;;;;5032265;28;20461;-76
2021/08/28 06:57:25;;;;;;;4.20;1.73;;;16.30;99.90;;;;;;5032578;28;20533;-74
2021/08/28 06:59:50;;;;;;;1.30;1.20;;;16.40;99.90;;;;;;5033241;28;20199;-76
2021/08/28 07:02:16;;;;;;;1.97;1.40;;;16.50;99.90;;;;;;5033619;28;20167;-74
2021/08/28 07:04:41;;;;;;;1.43;1.33;;;16.50;99.90;;;;;;5032455;28;20624;-74
2021/08/28 07:07:07;;;;;;;3.53;1.30;;;16.50;99.90;;;;;;5032110;28;20174;-74
2021/08/28 07:09:33;;;;;;;1.33;1.23;;;16.60;99.90;;;;;;5033146;28;20195;-76
2021/08/28 07:11:58;;;;;;;1.03;0.93;;;16.70;99.90;;;;;;5035192;28;20199;-75
2021/08/28 07:14:24;;;;;;;0.80;0.70;;;16.70;99.90;;;;;;5031396;28;20179;-73
2021/08/28 07:16:49;;;;;;;1.20;0.90;;;16.80;99.90;;;;;;5032006;28;20171;-74
2021/08/28 07:19:15;;;;;;;1.90;1.70;;;16.80;99.90;;;;;;5030877;28;20203;-74
2021/08/28 07:21:40;;;;;;;2.90;1.23;;;16.80;99.90;;;;;;5032258;28;20171;-74
2021/08/28 07:24:06;;;;;;;1.67;1.47;;;16.80;99.90;;;;;;5032941;28;20579;-75
2021/08/28 07:26:32;;;;;;;2.00;1.67;;;16.80;99.90;;;;;;5035795;28;20168;-74
2021/08/28 07:28:58;;;;;;;1.00;0.90;;;16.80;99.90;;;;;;5034245;28;20286;-75
2021/08/28 07:31:23;;;;;;;1.57;1.40;;;16.80;99.90;;;;;;5032159;28;20406;-74
2021/08/28 07:33:49;;;;;;;2.50;2.30;;;16.80;99.90;;;;;;5030731;28;20175;-74
2021/08/28 07:36:14;;;;;;;2.73;2.47;;;16.80;99.90;;;;;;5031756;28;20163;-74
2021/08/28 07:38:40;;;;;;;0.83;0.70;;;16.90;99.90;;;;;;5030674;28;20246;-75
2021/08/28 07:41:06;;;;;;;2.13;0.80;;;16.90;99.90;;;;;;5031937;28;20195;-75
2021/08/28 07:43:31;;;;;;;0.90;0.80;;;17.00;99.90;;;;;;5032052;28;20277;-74
2021/08/28 07:45:58;;;;;;;5.13;2.47;;;17.10;99.90;;;;;;5031767;28;20175;-74
2021/08/28 07:48:24;;;;;;;1.10;0.93;;;17.10;99.90;;;;;;5031905;28;20202;-75
2021/08/28 07:50:49;;;;;;;2.90;1.30;;;17.20;99.90;;;;;;5032912;28;20797;-75
2021/08/28 07:53:15;;;;;;;1.77;1.67;;;17.30;99.90;;;;;;5036116;28;20604;-75
2021/08/28 07:55:41;;;;;;;1.03;0.93;;;17.40;99.90;;;;;;5035622;28;20609;-75
2021/08/28 07:58:06;;;;;;;4.60;1.00;;;17.50;99.90;;;;;;5035851;28;20656;-73
2021/08/28 08:00:32;;;;;;;3.10;1.53;;;17.50;99.90;;;;;;5035869;28;20203;-74
2021/08/28 08:02:57;;;;;;;3.80;1.43;;;17.50;99.90;;;;;;5035859;28;20171;-75
2021/08/28 08:05:23;;;;;;;1.17;1.07;;;17.60;99.90;;;;;;5035498;28;20183;-75
2021/08/28 08:07:49;;;;;;;2.03;1.50;;;17.70;99.90;;;;;;5035743;28;20222;-75
2021/08/28 08:10:14;;;;;;;1.30;1.00;;;17.80;99.90;;;;;;5035689;28;20174;-75
2021/08/28 08:12:40;;;;;;;2.27;2.07;;;17.80;99.90;;;;;;5035628;28;20186;-75
2021/08/28 08:15:06;;;;;;;2.50;2.40;;;17.90;99.90;;;;;;5034477;28;20179;-77
2021/08/28 08:17:32;;;;;;;2.30;1.93;;;18.00;99.90;;;;;;5037623;28;20178;-77
2021/08/28 08:19:58;;;;;;;3.93;2.30;;;18.00;99.90;;;;;;5036211;28;20461;-77
2021/08/28 08:22:23;;;;;;;2.30;2.10;;;18.00;99.90;;;;;;5037852;28;20254;-76
2021/08/28 08:24:49;;;;;;;1.87;1.67;;;18.10;99.90;;;;;;5037890;28;20203;-76
2021/08/28 08:27:15;;;;;;;1.73;1.00;;;18.10;99.90;;;;;;5034702;28;20179;-76
2021/08/28 08:29:41;;;;;;;2.00;1.90;;;18.10;99.90;;;;;;5035418;28;20414;-76
2021/08/28 08:32:07;;;;;;;3.17;2.97;;;18.20;99.90;;;;;;5035364;28;20784;-76
2021/08/28 08:34:32;;;;;;;1.20;1.07;;;18.10;99.90;;;;;;5035315;28;20603;-76
2021/08/28 08:36:58;;;;;;;5.90;1.40;;;18.20;99.90;;;;;;5035106;28;20171;-76
2021/08/28 08:39:24;;;;;;;4.03;2.07;;;18.20;99.90;;;;;;5035211;28;20210;-78
2021/08/28 08:41:51;;;;;;;1.20;1.10;;;18.10;99.90;;;;;;5035702;28;20168;-75
2021/08/28 08:44:16;;;;;;;1.63;1.53;;;18.10;99.90;;;;;;5035216;28;20172;-77
2021/08/28 08:46:44;;;;;;;7.70;1.13;;;18.20;99.90;;;;;;5033503;28;20819;-76
2021/08/28 08:49:11;;;;;;;0.80;0.70;;;18.20;99.90;;;;;;5034945;28;20193;-76
2021/08/28 08:51:37;;;;;;;1.63;1.53;;;18.30;99.90;;;;;;5033768;28;20825;-76
2021/08/28 08:54:04;;;;;;;1.00;0.90;;;18.30;99.90;;;;;;5033762;28;20505;-77
2021/08/28 08:56:30;;;;;;;1.53;1.43;;;18.50;99.90;;;;;;5034490;28;20241;-76
2021/08/28 08:58:57;;;;;;;3.57;2.73;;;18.50;99.90;;;;;;5035517;28;20426;-78
2021/08/28 09:01:22;;;;;;;1.00;0.90;;;18.60;99.90;;;;;;5039196;28;20202;-78
2021/08/28 09:03:48;;;;;;;3.03;2.80;;;18.80;99.90;;;;;;5034747;28;20519;-77
2021/08/28 09:06:14;;;;;;;1.00;0.87;;;19.20;99.90;;;;;;5034517;28;20568;-77
2021/08/28 09:08:39;;;;;;;1.10;1.00;;;20.10;99.90;;;;;;5034635;28;20434;-77
2021/08/28 09:11:19;;;;;;;3.20;2.67;;;21.10;99.90;;;;;;5034620;28;20531;-78
2021/08/28 09:13:45;;;;;;;2.60;1.23;;;21.50;99.90;;;;;;5034664;28;20172;-77
2021/08/28 09:16:10;;;;;;;4.63;4.20;;;21.50;99.90;;;;;;5034313;28;20412;-78
2021/08/28 09:18:51;;;;;;;3.87;1.90;;;21.40;99.90;;;;;;5036713;28;20671;-79
2021/08/28 09:21:16;;;;;;;3.13;1.10;;;21.50;99.90;;;;;;5038038;28;20210;-77
2021/08/28 09:23:42;;;;;;;1.63;1.53;;;21.60;99.90;;;;;;5036071;28;20474;-77
2021/08/28 09:26:28;;;;;;;1.60;1.50;;;21.90;99.90;;;;;;5020980;28;20203;-77
2021/08/28 09:28:56;;;;;;;2.60;2.37;;;21.90;99.90;;;;;;5033490;28;20188;-77
2021/08/28 09:31:52;;;;;;;1.57;1.00;;;21.70;99.90;;;;;;5032950;28;20539;-77
2021/08/28 09:34:21;;;;;;;0.80;0.70;;;21.60;99.90;;;;;;5013213;28;20509;-77
2021/08/28 09:37:01;;;;;;;1.27;1.17;;;21.50;99.90;;;;;;5018971;28;20423;-77
2021/08/28 09:39:45;;;;;;;2.10;1.53;;;21.60;99.90;;;;;;5032787;28;20465;-77
2021/08/28 09:42:19;;;;;;;1.30;1.20;;;21.80;99.90;;;;;;5033121;28;20458;-77
2021/08/28 09:44:46;;;;;;;1.77;0.80;;;22.30;99.90;;;;;;5055939;28;20408;-78
2021/08/28 09:47:18;;;;;;;2.13;1.93;;;23.20;99.90;;;;;;5055193;28;20432;-78
2021/08/28 09:49:45;;;;;;;1.47;1.37;;;24.10;99.90;;;;;;5056592;28;20517;-77
2021/08/28 09:52:21;;;;;;;1.20;1.10;;;24.60;99.90;;;;;;5056935;28;20421;-78
2021/08/28 09:54:48;;;;;;;1.47;1.20;;;24.60;99.90;;;;;;5056343;28;20445;-77
2021/08/28 09:57:14;;;;;;;1.93;1.00;;;24.70;99.90;;;;;;5050365;28;20430;-78
2021/08/28 09:59:41;;;;;;;1.03;0.93;;;25.10;99.90;;;;;;5017777;28;20455;-78
2021/08/28 10:02:11;;;;;;;1.17;0.90;;;25.60;99.90;;;;;;5016768;28;20801;-77
2021/08/28 10:04:49;;;;;;;3.90;1.23;;;26.10;99.90;;;;;;5024417;28;20521;-77
2021/08/28 10:07:21;;;;;;;1.27;1.10;;;26.30;99.90;;;;;;5030196;28;20434;-77
2021/08/28 10:09:51;;;;;;;1.60;1.50;;;26.80;99.90;;;;;;5014596;28;20422;-76
2021/08/28 10:12:19;;;;;;;1.70;1.40;;;27.20;99.90;;;;;;5013777;28;20415;-76
2021/08/28 10:14:46;;;;;;;1.30;1.00;;;27.30;99.90;;;;;;5013878;28;20431;-76
2021/08/28 10:17:12;;;;;;;1.20;1.00;;;27.10;99.90;;;;;;5012223;28;20443;-75
2021/08/28 10:19:38;;;;;;;0.90;0.70;;;26.60;99.90;;;;;;5020572;28;20979;-77
2021/08/28 10:22:05;;;;;;;0.90;0.73;;;26.30;99.90;;;;;;5033438;28;20485;-75
2021/08/28 10:24:31;;;;;;;2.20;1.07;;;26.00;99.90;;;;;;5032510;28;20428;-75
2021/08/28 10:26:57;;;;;;;2.03;1.50;;;25.80;99.90;;;;;;5030783;28;20524;-75
2021/08/28 10:29:23;;;;;;;1.10;0.93;;;25.30;99.90;;;;;;5045076;28;20599;-77
2021/08/28 10:31:50;;;;;;;1.23;1.00;;;24.90;99.90;;;;;;5046339;28;20540;-77
2021/08/28 10:34:16;;;;;;;0.80;0.80;;;24.30;99.90;;;;;;5024045;28;20488;-77
2021/08/28 10:36:43;;;;;;;2.57;1.50;;;23.80;99.90;;;;;;5012967;28;20407;-77
2021/08/28 10:39:09;;;;;;;1.23;1.00;;;23.50;99.90;;;;;;5013106;28;20431;-77
2021/08/28 10:41:36;;;;;;;1.87;1.43;;;23.10;99.90;;;;;;5013197;28;20400;-77
2021/08/28 10:44:03;;;;;;;7.50;1.30;;;22.70;99.90;;;;;;5020346;28;20493;-76
2021/08/28 10:46:31;;;;;;;2.90;1.27;;;22.10;99.90;;;;;;5031310;28;20902;-76
2021/08/28 10:49:01;;;;;;;0.80;0.70;;;21.80;99.90;;;;;;5032707;28;20426;-76
2021/08/28 10:51:32;;;;;;;1.33;1.23;;;21.40;99.90;;;;;;5018054;28;20435;-76
2021/08/28 10:54:03;;;;;;;0.80;0.70;;;21.10;99.90;;;;;;5031100;28;20422;-76
2021/08/28 10:57:02;;;;;;;1.10;0.80;;;20.90;99.90;;;;;;5032292;28;20815;-76
2021/08/28 10:59:32;;;;;;;1.10;0.90;;;20.70;99.90;;;;;;5029170;28;20473;-76
2021/08/28 11:02:09;;;;;;;0.83;0.63;;;20.50;99.90;;;;;;5032792;28;20403;-77
2021/08/28 11:04:43;;;;;;;2.20;1.03;;;20.30;99.90;;;;;;5035931;28;21000;-77
2021/08/28 11:07:28;;;;;;;1.50;0.90;;;20.20;99.90;;;;;;5034318;28;20419;-78
2021/08/28 11:10:06;;;;;;;1.20;1.10;;;20.00;99.90;;;;;;5034167;28;20453;-78
2021/08/28 11:12:53;;;;;;;1.03;0.90;;;19.80;99.90;;;;;;5036078;28;20460;-78
2021/08/28 11:15:28;;;;;;;0.80;0.70;;;19.80;99.90;;;;;;5034296;28;20410;-78
2021/08/28 11:17:58;;;;;;;0.70;0.60;;;19.80;99.90;;;;;;5032769;28;20479;-76
2021/08/28 11:20:32;;;;;;;1.27;1.17;;;19.90;99.90;;;;;;5030816;28;20478;-76
2021/08/28 11:23:01;;;;;;;2.43;1.80;;;20.00;99.90;;;;;;5032358;28;20410;-76
2021/08/28 11:25:28;;;;;;;1.93;0.97;;;20.10;99.90;;;;;;5025456;28;20455;-77
2021/08/28 11:27:55;;;;;;;1.43;0.87;;;20.40;99.90;;;;;;5012385;28;20851;-77
2021/08/28 11:30:46;;;;;;;1.10;0.63;;;20.70;99.90;;;;;;5012411;28;20916;-77
2021/08/28 11:33:20;;;;;;;1.33;1.23;;;21.10;99.90;;;;;;5012417;28;20912;-76
2021/08/28 11:35:55;;;;;;;1.10;0.80;;;21.40;99.90;;;;;;5015571;28;20406;-78
2021/08/28 11:38:52;;;;;;;0.90;0.80;;;21.70;99.90;;;;;;5017426;28;20441;-78
2021/08/28 11:41:22;;;;;;;1.63;1.20;;;21.90;99.90;;;;;;5016486;28;20461;-79
2021/08/28 11:43:49;;;;;;;1.97;0.77;;;22.30;99.90;;;;;;5017603;28;20415;-78
2021/08/28 11:46:23;;;;;;;1.00;0.83;;;22.80;99.90;;;;;;5016095;28;20453;-77
2021/08/28 11:48:50;;;;;;;0.90;0.60;;;23.20;99.90;;;;;;5012206;28;20438;-77
2021/08/28 11:51:18;;;;;;;4.70;1.47;;;23.80;99.90;;;;;;5010913;28;20415;-78
2021/08/28 11:53:46;;;;;;;3.37;1.53;;;24.50;99.90;;;;;;5026511;28;20414;-77
2021/08/28 11:56:15;;;;;;;1.73;0.80;;;24.70;99.90;;;;;;5031585;28;20858;-78
2021/08/28 11:58:55;;;;;;;0.83;0.80;;;25.10;99.90;;;;;;5034149;28;20432;-78
2021/08/28 12:01:23;;;;;;;0.97;0.87;;;25.70;99.90;;;;;;5014817;28;20463;-78
2021/08/28 12:03:49;;;;;;;1.20;0.83;;;26.10;99.90;;;;;;5013215;28;20782;-78
2021/08/28 12:06:15;;;;;;;0.80;0.60;;;26.30;99.90;;;;;;5013342;28;20406;-75
2021/08/28 12:08:44;;;;;;;4.20;1.97;;;26.30;99.90;;;;;;5031119;28;20206;-76
2021/08/28 12:11:10;;;;;;;1.70;0.90;;;26.20;99.90;;;;;;5038802;28;20199;-75
2021/08/28 12:13:46;;;;;;;1.07;0.97;;;25.90;99.90;;;;;;5015246;28;20843;-74
2021/08/28 12:16:17;;;;;;;1.47;1.07;;;25.60;99.90;;;;;;5020336;28;20218;-75
2021/08/28 12:18:43;;;;;;;1.83;1.00;;;25.30;99.90;;;;;;5017838;28;21062;-75
2021/08/28 12:21:12;;;;;;;0.90;0.70;;;25.00;99.90;;;;;;5016712;28;20447;-75
2021/08/28 12:23:37;;;;;;;1.20;1.10;;;24.90;99.90;;;;;;5018703;28;20171;-75
2021/08/28 12:26:14;;;;;;;2.23;1.40;;;24.80;99.90;;;;;;5031337;28;20410;-75
2021/08/28 12:28:41;;;;;;;2.40;1.03;;;25.00;99.90;;;;;;5014623;28;20219;-75
2021/08/28 12:31:06;;;;;;;1.10;1.00;;;25.10;99.90;;;;;;5012703;28;20983;-75
2021/08/28 12:33:32;;;;;;;1.57;1.47;;;25.30;99.90;;;;;;5015508;28;20433;-75
2021/08/28 12:35:58;;;;;;;1.20;0.90;;;25.30;99.90;;;;;;5024014;28;20246;-75
2021/08/28 12:38:32;;;;;;;2.60;1.63;;;25.20;99.90;;;;;;5015633;28;20192;-75
2021/08/28 12:40:59;;;;;;;1.00;0.90;;;25.00;99.90;;;;;;5015465;28;20497;-74
2021/08/28 12:43:27;;;;;;;1.60;1.20;;;24.90;99.90;;;;;;5014129;28;20411;-75
2021/08/28 12:45:54;;;;;;;1.67;0.70;;;24.90;99.90;;;;;;5020145;28;20425;-75
2021/08/28 12:48:21;;;;;;;0.90;0.80;;;25.10;99.90;;;;;;5026304;28;20447;-75
2021/08/28 12:50:47;;;;;;;1.00;0.80;;;25.60;99.90;;;;;;5029691;28;20426;-75